createdAt,value
2022-10-15T00:00:18.918Z,9.27
2022-10-15T00:04:16.061Z,9.25
2022-10-15T00:07:54.913Z,9.23
2022-10-15T00:11:32.485Z,9.19
2022-10-15T00:15:11.365Z,9.17
2022-10-15T00:18:51.935Z,9.14
2022-10-15T00:22:28.254Z,9.11
2022-10-15T00:26:15.794Z,9.11
2022-10-15T00:29:51.959Z,9.08
2022-10-15T00:33:29.971Z,9.08
2022-10-15T00:37:08.625Z,9.06
2022-10-15T00:40:44.759Z,9.03
2022-10-15T00:44:25.949Z,9.00
2022-10-15T00:48:01.909Z,8.95
2022-10-15T00:51:45.462Z,8.89
2022-10-15T00:55:32.521Z,8.87
2022-10-15T00:59:11.849Z,8.85
2022-10-15T01:02:48.178Z,8.83
2022-10-15T01:06:27.144Z,8.81
2022-10-15T01:10:06.047Z,8.80
2022-10-15T01:13:43.129Z,8.81
2022-10-15T01:17:41.961Z,8.80
2022-10-15T01:21:36.958Z,8.80
2022-10-15T01:25:46.204Z,8.80
2022-10-15T01:29:38.935Z,8.83
2022-10-15T01:33:20.986Z,8.84
2022-10-15T01:37:13.389Z,8.83
2022-10-15T01:41:09.047Z,8.81
2022-10-15T01:44:57.897Z,8.84
2022-10-15T01:48:49.645Z,8.83
2022-10-15T01:52:35.878Z,8.82
2022-10-15T01:56:41.982Z,8.84
2022-10-15T02:00:41.722Z,8.79
2022-10-15T02:04:40.089Z,8.83
2022-10-15T02:09:12.370Z,8.81
2022-10-15T02:13:19.604Z,8.81
2022-10-15T02:17:21.673Z,8.80
2022-10-15T02:21:35.305Z,8.82
2022-10-15T02:25:35.519Z,8.79
2022-10-15T02:29:37.106Z,8.77
2022-10-15T02:33:35.159Z,8.80
2022-10-15T02:37:44.409Z,8.81
2022-10-15T02:41:42.393Z,8.78
2022-10-15T02:45:39.849Z,8.82
2022-10-15T02:49:36.315Z,8.84
2022-10-15T02:53:34.067Z,8.81
2022-10-15T02:57:30.825Z,8.80
2022-10-15T03:01:28.011Z,8.78
2022-10-15T03:05:25.307Z,8.77
2022-10-15T03:09:22.398Z,8.79
2022-10-15T03:13:19.583Z,8.78
2022-10-15T03:17:17.018Z,8.75
2022-10-15T03:21:14.139Z,8.77
2022-10-15T03:25:11.572Z,8.77
2022-10-15T03:29:09.110Z,8.76
2022-10-15T03:33:06.474Z,8.73
2022-10-15T03:37:03.230Z,8.72
2022-10-15T03:41:01.827Z,8.73
2022-10-15T03:44:59.389Z,8.72
2022-10-15T03:48:56.241Z,8.72
2022-10-15T03:52:54.546Z,8.72
2022-10-15T03:56:51.705Z,8.75
2022-10-15T04:00:49.920Z,8.72
2022-10-15T04:04:46.615Z,8.71
2022-10-15T04:08:43.697Z,8.69
2022-10-15T04:12:40.835Z,8.72
2022-10-15T04:16:38.840Z,8.71
2022-10-15T04:20:35.974Z,8.71
2022-10-15T04:24:32.719Z,8.73
2022-10-15T04:28:30.790Z,8.71
2022-10-15T04:32:28.778Z,8.73
2022-10-15T04:36:25.554Z,8.75
2022-10-15T04:40:24.326Z,8.76
2022-10-15T04:44:21.323Z,8.78
2022-10-15T04:48:19.699Z,8.79
2022-10-15T04:52:16.830Z,8.78
2022-10-15T04:56:18.184Z,8.79
2022-10-15T04:59:56.942Z,8.82
2022-10-15T05:03:55.612Z,8.82
2022-10-15T05:07:33.008Z,8.81
2022-10-15T05:11:18.425Z,8.78
2022-10-15T05:14:55.579Z,8.83
2022-10-15T05:18:33.097Z,8.84
2022-10-15T05:22:10.677Z,8.86
2022-10-15T05:25:51.627Z,8.85
2022-10-15T05:29:31.098Z,8.90
2022-10-15T05:33:08.811Z,8.89
2022-10-15T05:36:45.689Z,8.92
2022-10-15T05:40:48.846Z,8.99
2022-10-15T05:44:01.094Z,9.03
2022-10-15T05:47:39.105Z,9.10
2022-10-15T05:51:17.732Z,9.13
2022-10-15T05:54:54.123Z,9.18
2022-10-15T05:58:37.197Z,9.24
2022-10-15T06:02:16.494Z,9.30
2022-10-15T06:05:52.789Z,9.36
2022-10-15T06:09:30.855Z,9.38
2022-10-15T06:13:09.374Z,9.46
2022-10-15T06:16:46.365Z,9.56
2022-10-15T06:20:23.554Z,9.67
2022-10-15T06:24:01.709Z,9.80
2022-10-15T06:27:39.570Z,9.98
2022-10-15T06:31:17.095Z,10.13
2022-10-15T06:34:54.893Z,10.25
2022-10-15T06:38:34.880Z,10.41
2022-10-15T06:42:10.999Z,10.57
2022-10-15T06:45:48.703Z,10.82
2022-10-15T06:49:26.517Z,10.97
2022-10-15T06:53:05.034Z,11.09
2022-10-15T06:56:41.732Z,11.22
2022-10-15T07:00:19.675Z,11.32
2022-10-15T07:03:57.132Z,11.52
2022-10-15T07:07:34.937Z,11.64
2022-10-15T07:11:13.057Z,11.86
2022-10-15T07:14:50.540Z,11.98
2022-10-15T07:18:28.443Z,12.06
2022-10-15T07:22:06.857Z,12.14
2022-10-15T07:25:43.368Z,12.21
2022-10-15T07:29:21.051Z,12.34
2022-10-15T07:32:59.766Z,12.46
2022-10-15T07:36:36.760Z,12.58
2022-10-15T07:40:14.369Z,12.69
2022-10-15T07:43:54.210Z,13.07
2022-10-15T07:47:31.405Z,13.23
2022-10-15T07:51:08.356Z,13.57
2022-10-15T07:54:45.583Z,13.45
2022-10-15T07:58:24.388Z,13.26
2022-10-15T08:02:03.407Z,13.06
2022-10-15T08:05:40.223Z,12.74
2022-10-15T08:09:17.641Z,12.65
2022-10-15T08:12:54.812Z,12.57
2022-10-15T08:16:32.412Z,12.61
2022-10-15T08:20:11.037Z,12.58
2022-10-15T08:23:49.062Z,12.62
2022-10-15T08:27:26.438Z,12.76
2022-10-15T08:31:05.883Z,13.23
2022-10-15T08:34:42.474Z,13.50
2022-10-15T08:38:21.842Z,13.35
2022-10-15T08:42:05.138Z,13.43
2022-10-15T08:45:46.132Z,14.03
2022-10-15T08:49:38.876Z,14.60
2022-10-15T08:53:20.672Z,15.29
2022-10-15T08:57:30.017Z,15.80
2022-10-15T09:01:37.831Z,16.14
2022-10-15T09:05:24.231Z,16.23
2022-10-15T09:09:18.866Z,16.31
2022-10-15T09:13:04.933Z,16.62
2022-10-15T09:16:45.605Z,16.98
2022-10-15T09:20:31.198Z,17.27
2022-10-15T09:24:12.837Z,17.30
2022-10-15T09:27:51.617Z,17.30
2022-10-15T09:31:41.095Z,17.08
2022-10-15T09:35:24.528Z,16.89
2022-10-15T09:39:12.688Z,17.20
2022-10-15T09:42:51.226Z,17.37
2022-10-15T09:46:28.678Z,17.32
2022-10-15T09:50:07.647Z,17.12
2022-10-15T09:54:16.167Z,16.75
2022-10-15T09:57:55.528Z,16.37
2022-10-15T10:01:33.614Z,16.37
2022-10-15T10:05:19.221Z,16.13
2022-10-15T10:09:00.132Z,16.03
2022-10-15T10:12:37.831Z,16.16
2022-10-15T10:16:17.078Z,16.23
2022-10-15T10:20:17.014Z,16.35
2022-10-15T10:23:54.460Z,16.46
2022-10-15T10:27:31.021Z,16.45
2022-10-15T10:31:10.522Z,16.47
2022-10-15T10:34:51.620Z,16.81
2022-10-15T10:38:32.955Z,17.25
2022-10-15T10:42:22.415Z,17.96
2022-10-15T10:46:19.998Z,19.23
2022-10-15T10:49:42.378Z,19.51
2022-10-15T10:53:25.675Z,19.36
2022-10-15T10:57:01.989Z,19.23
2022-10-15T11:00:42.800Z,18.93
2022-10-15T11:04:32.978Z,19.12
2022-10-15T11:08:22.379Z,19.09
2022-10-15T11:11:59.678Z,19.97
2022-10-15T11:15:39.428Z,20.44
2022-10-15T11:23:45.116Z,20.76
2022-10-15T11:27:44.216Z,21.12
2022-10-15T11:31:37.128Z,21.74
2022-10-15T11:35:53.396Z,22.02
2022-10-15T11:39:54.128Z,22.47
2022-10-15T11:43:57.024Z,21.27
2022-10-15T11:47:36.474Z,21.03
2022-10-15T11:51:27.793Z,20.75
2022-10-15T11:55:22.204Z,20.58
2022-10-15T11:59:52.019Z,20.20
2022-10-15T12:02:39.487Z,19.92
2022-10-15T12:06:20.475Z,19.63
2022-10-15T12:10:09.181Z,19.58
2022-10-15T12:14:00.397Z,19.32
2022-10-15T12:17:55.398Z,19.01
2022-10-15T12:21:39.062Z,18.95
2022-10-15T12:25:34.779Z,18.87
2022-10-15T12:29:25.885Z,18.78
2022-10-15T12:33:21.930Z,18.72
2022-10-15T12:37:15.184Z,18.69
2022-10-15T12:41:12.352Z,18.62
2022-10-15T12:44:50.349Z,18.55
2022-10-15T12:48:32.719Z,18.47
2022-10-15T12:52:59.116Z,18.45
2022-10-15T12:56:41.976Z,18.46
2022-10-15T13:00:32.310Z,18.43
2022-10-15T13:04:08.909Z,18.41
2022-10-15T13:07:47.788Z,18.47
2022-10-15T13:11:26.988Z,18.45
2022-10-15T13:15:06.588Z,18.50
2022-10-15T13:18:50.487Z,18.46
2022-10-15T13:22:31.457Z,18.53
2022-10-15T13:26:27.633Z,18.55
2022-10-15T13:30:14.020Z,18.53
2022-10-15T13:33:58.935Z,18.55
2022-10-15T13:37:40.678Z,18.60
2022-10-15T13:41:24.565Z,18.67
2022-10-15T13:45:18.871Z,18.73
2022-10-15T13:49:02.477Z,18.80
2022-10-15T13:52:47.608Z,18.73
2022-10-15T13:56:29.008Z,18.71
2022-10-15T14:00:06.367Z,18.62
2022-10-15T14:03:52.258Z,18.52
2022-10-15T14:07:28.844Z,18.42
2022-10-15T14:11:06.770Z,18.34
2022-10-15T14:14:48.313Z,18.29
2022-10-15T14:18:49.328Z,18.28
2022-10-15T14:22:28.776Z,18.29
2022-10-15T14:26:05.917Z,18.28
2022-10-15T14:30:13.985Z,18.25
2022-10-15T14:33:52.141Z,18.21
2022-10-15T14:37:33.820Z,18.15
2022-10-15T14:41:30.848Z,18.12
2022-10-15T14:45:32.185Z,18.00
2022-10-15T14:49:22.772Z,17.90
2022-10-15T14:53:08.564Z,17.85
2022-10-15T14:56:45.614Z,17.83
2022-10-15T15:00:26.175Z,17.81
2022-10-15T15:04:02.759Z,17.79
2022-10-15T15:07:41.318Z,17.74
2022-10-15T15:11:25.841Z,17.73
2022-10-15T15:15:03.075Z,17.67
2022-10-15T15:18:42.954Z,17.56
2022-10-15T15:22:35.789Z,17.55
2022-10-15T15:26:12.465Z,17.52
2022-10-15T15:29:51.871Z,17.46
2022-10-15T15:33:29.456Z,17.39
2022-10-15T15:37:14.506Z,17.32
2022-10-15T15:40:51.332Z,17.32
2022-10-15T15:44:28.518Z,17.27
2022-10-15T15:48:06.114Z,17.24
2022-10-15T15:51:43.584Z,17.17
2022-10-15T15:55:21.567Z,17.14
2022-10-15T15:58:58.907Z,17.06
2022-10-15T16:02:38.213Z,17.01
2022-10-15T16:06:14.604Z,16.90
2022-10-15T16:09:52.005Z,16.85
2022-10-15T16:13:31.353Z,16.75
2022-10-15T16:17:07.423Z,16.71
2022-10-15T16:20:48.529Z,16.65
2022-10-15T16:24:25.401Z,16.59
2022-10-15T16:28:03.113Z,16.56
2022-10-15T16:31:40.794Z,16.53
2022-10-15T16:35:18.354Z,16.51
2022-10-15T16:38:57.652Z,16.49
2022-10-15T16:42:33.799Z,16.42
2022-10-15T16:46:11.931Z,16.42
2022-10-15T16:49:49.213Z,16.37
2022-10-15T16:53:28.037Z,16.37
2022-10-15T16:57:04.619Z,16.37
2022-10-15T17:00:42.012Z,16.34
2022-10-15T17:04:20.249Z,16.33
2022-10-15T17:07:57.525Z,16.35
2022-10-15T17:11:40.996Z,16.29
2022-10-15T17:15:17.845Z,16.23
2022-10-15T17:18:57.079Z,16.18
2022-10-15T17:22:35.204Z,15.99
2022-10-15T17:26:14.613Z,15.73
2022-10-15T17:29:50.598Z,15.52
2022-10-15T17:33:28.715Z,15.34
2022-10-15T17:37:25.785Z,15.18
2022-10-15T17:40:43.971Z,15.11
2022-10-15T17:44:21.514Z,14.97
2022-10-15T17:47:59.141Z,14.88
2022-10-15T17:51:38.309Z,14.85
2022-10-15T17:55:14.641Z,14.79
2022-10-15T17:58:52.760Z,14.83
2022-10-15T18:02:31.774Z,14.82
2022-10-15T18:06:12.574Z,14.81
2022-10-15T18:09:49.860Z,14.83
2022-10-15T18:13:26.490Z,14.83
2022-10-15T18:17:05.361Z,14.85
2022-10-15T18:20:45.723Z,14.83
2022-10-15T18:24:25.345Z,14.81
2022-10-15T18:28:01.857Z,14.83
2022-10-15T18:31:39.352Z,14.83
2022-10-15T18:35:17.368Z,14.82
2022-10-15T18:38:55.739Z,14.83
2022-10-15T18:42:32.649Z,14.81
2022-10-15T18:46:10.758Z,14.85
2022-10-15T18:49:47.977Z,14.86
2022-10-15T18:53:26.374Z,14.85
2022-10-15T18:57:04.128Z,14.86
2022-10-15T19:00:40.865Z,14.83
2022-10-15T19:04:20.005Z,14.77
2022-10-15T19:07:56.465Z,14.74
2022-10-15T19:11:35.536Z,14.70
2022-10-15T19:15:12.077Z,14.66
2022-10-15T19:18:49.386Z,14.58
2022-10-15T19:22:28.894Z,14.55
2022-10-15T19:26:11.878Z,14.52
2022-10-15T19:29:48.019Z,14.50
2022-10-15T19:33:27.075Z,14.49
2022-10-15T19:37:04.545Z,14.51
2022-10-15T19:40:43.734Z,14.53
2022-10-15T19:44:26.131Z,14.50
2022-10-15T19:48:05.539Z,14.49
2022-10-15T19:51:42.117Z,14.47
2022-10-15T19:55:39.653Z,14.47
2022-10-15T19:58:59.434Z,14.45
2022-10-15T20:02:37.374Z,14.46
2022-10-15T20:06:13.545Z,14.47
2022-10-15T20:09:51.153Z,14.50
2022-10-15T20:13:29.057Z,14.51
2022-10-15T20:17:06.451Z,14.51
2022-10-15T20:20:46.436Z,14.51
2022-10-15T20:24:22.773Z,14.49
2022-10-15T20:28:00.084Z,14.45
2022-10-15T20:31:37.890Z,14.41
2022-10-15T20:35:17.830Z,14.44
2022-10-15T20:38:57.526Z,14.42
2022-10-15T20:42:38.098Z,14.46
2022-10-15T20:46:22.172Z,14.45
2022-10-15T20:49:58.478Z,14.42
2022-10-15T20:53:36.903Z,14.41
2022-10-15T20:57:14.142Z,14.38
2022-10-15T21:00:51.696Z,14.38
2022-10-15T21:04:30.311Z,14.35
2022-10-15T21:08:06.999Z,14.32
2022-10-15T21:11:46.844Z,14.27
2022-10-15T21:15:23.324Z,14.27
2022-10-15T21:19:01.225Z,14.20
2022-10-15T21:22:39.628Z,14.20
2022-10-15T21:26:18.361Z,14.22
2022-10-15T21:29:54.277Z,14.19
2022-10-15T21:33:32.754Z,14.14
2022-10-15T21:37:11.589Z,14.12
2022-10-15T21:40:51.647Z,14.15
2022-10-15T21:44:27.720Z,14.12
2022-10-15T21:48:06.023Z,14.14
2022-10-15T21:51:43.003Z,14.17
2022-10-15T21:55:21.855Z,14.19
2022-10-15T21:59:02.000Z,14.25
2022-10-15T22:02:37.974Z,14.28
2022-10-15T22:06:16.692Z,14.33
2022-10-15T22:09:53.683Z,14.35
2022-10-15T22:13:31.695Z,14.40
2022-10-15T22:17:08.976Z,14.46
2022-10-15T22:20:47.320Z,14.48
2022-10-15T22:24:24.388Z,14.52
2022-10-15T22:28:01.987Z,14.52
2022-10-15T22:31:39.498Z,14.54
2022-10-15T22:35:17.803Z,14.54
2022-10-15T22:39:02.101Z,14.59
2022-10-15T22:42:39.366Z,14.62
2022-10-15T22:46:17.064Z,14.61
2022-10-15T22:49:55.009Z,14.61
2022-10-15T22:53:33.393Z,14.66
2022-10-15T22:57:11.718Z,14.73
2022-10-15T23:00:48.146Z,14.73
2022-10-15T23:04:26.638Z,14.70
2022-10-15T23:08:03.733Z,14.69
2022-10-15T23:11:41.494Z,14.67
2022-10-15T23:15:18.993Z,14.69
2022-10-15T23:18:59.993Z,14.72
2022-10-15T23:22:37.671Z,14.70
2022-10-15T23:26:17.274Z,14.65
2022-10-15T23:30:01.941Z,14.64
2022-10-15T23:33:50.576Z,14.63
2022-10-15T23:37:27.689Z,14.60
2022-10-15T23:41:07.544Z,14.58
2022-10-15T23:44:43.768Z,14.59
2022-10-15T23:48:22.176Z,14.59
2022-10-15T23:52:00.503Z,14.61
2022-10-15T23:55:43.107Z,14.60
2022-10-15T23:59:17.395Z,14.61
